createdAt,value
2017-06-01T00:01:15.714Z,4.00
2017-06-01T00:03:44.546Z,3.92
2017-06-01T00:06:14.613Z,4.56
2017-06-01T00:08:43.585Z,4.00
2017-06-01T00:11:12.464Z,4.58
2017-06-01T00:13:41.427Z,4.16
2017-06-01T00:16:10.320Z,4.54
2017-06-01T00:18:39.952Z,4.44
2017-06-01T00:21:08.798Z,4.76
2017-06-01T00:23:37.655Z,5.30
2017-06-01T00:26:06.584Z,4.44
2017-06-01T00:28:35.519Z,4.24
2017-06-01T00:31:04.390Z,4.68
2017-06-01T00:33:33.262Z,4.64
2017-06-01T00:36:03.578Z,4.36
2017-06-01T00:38:32.439Z,4.38
2017-06-01T00:41:01.314Z,4.18
2017-06-01T00:43:30.207Z,3.98
2017-06-01T00:45:59.075Z,4.70
2017-06-01T00:48:27.966Z,3.62
2017-06-01T00:50:56.903Z,4.70
2017-06-01T00:53:25.745Z,4.70
2017-06-01T00:55:55.174Z,3.68
2017-06-01T00:58:24.074Z,4.22
2017-06-01T01:00:53.455Z,4.38
2017-06-01T01:03:21.547Z,3.88
2017-06-01T01:05:50.478Z,4.88
2017-06-01T01:08:19.330Z,3.44
2017-06-01T01:10:49.495Z,3.32
2017-06-01T01:13:18.288Z,3.96
2017-06-01T01:15:47.135Z,4.76
2017-06-01T01:18:17.870Z,3.76
2017-06-01T01:20:46.782Z,4.60
2017-06-01T01:23:15.674Z,4.48
2017-06-01T01:25:44.546Z,3.62
2017-06-01T01:28:13.424Z,3.82
2017-06-01T01:30:42.326Z,4.22
2017-06-01T01:33:11.192Z,4.50
2017-06-01T01:35:40.172Z,4.16
2017-06-01T01:38:09.102Z,4.06
2017-06-01T01:40:37.947Z,4.80
2017-06-01T01:43:06.823Z,3.94
2017-06-01T01:45:35.697Z,4.70
2017-06-01T01:48:03.808Z,4.12
2017-06-01T01:50:31.907Z,3.98
2017-06-01T01:53:01.523Z,4.24
2017-06-01T01:55:30.375Z,3.92
2017-06-01T01:57:58.462Z,4.06
2017-06-01T02:00:27.310Z,3.94
2017-06-01T02:02:56.156Z,3.70
2017-06-01T02:05:25.051Z,4.60
2017-06-01T02:07:54.815Z,3.86
2017-06-01T02:10:23.711Z,3.32
2017-06-01T02:12:52.657Z,3.84
2017-06-01T02:15:21.530Z,3.70
2017-06-01T02:17:49.669Z,3.76
2017-06-01T02:20:17.773Z,4.58
2017-06-01T02:22:46.044Z,3.96
2017-06-01T02:25:14.959Z,4.30
2017-06-01T02:27:43.893Z,3.38
2017-06-01T02:30:12.821Z,4.32
2017-06-01T02:32:41.687Z,4.42
2017-06-01T02:35:10.590Z,3.72
2017-06-01T02:37:39.443Z,3.76
2017-06-01T02:40:07.778Z,3.68
2017-06-01T02:42:35.918Z,5.04
2017-06-01T02:45:04.049Z,4.08
2017-06-01T02:47:32.940Z,4.10
2017-06-01T02:50:01.806Z,4.48
2017-06-01T02:52:30.681Z,6.14
2017-06-01T02:54:59.567Z,4.70
2017-06-01T02:57:28.414Z,4.42
2017-06-01T02:59:57.298Z,4.90
2017-06-01T03:02:26.182Z,4.96
2017-06-01T03:04:55.031Z,3.70
2017-06-01T03:07:23.918Z,3.88
2017-06-01T03:09:52.797Z,4.38
2017-06-01T03:12:20.954Z,4.32
2017-06-01T03:14:49.873Z,4.84
2017-06-01T03:17:18.730Z,4.90
2017-06-01T03:19:47.712Z,5.00
2017-06-01T03:22:15.819Z,4.42
2017-06-01T03:24:44.713Z,4.70
2017-06-01T03:27:13.564Z,5.90
2017-06-01T03:29:42.442Z,5.76
2017-06-01T03:32:11.344Z,6.40
2017-06-01T03:34:40.281Z,5.08
2017-06-01T03:37:09.210Z,5.28
2017-06-01T03:39:38.067Z,5.28
2017-06-01T03:42:06.218Z,5.40
2017-06-01T03:44:35.081Z,5.10
2017-06-01T03:47:03.946Z,5.46
2017-06-01T03:49:32.819Z,6.10
2017-06-01T03:52:01.693Z,4.84
2017-06-01T03:54:30.575Z,4.58
2017-06-01T03:56:59.434Z,4.80
2017-06-01T03:59:28.290Z,4.74
2017-06-01T04:01:57.155Z,4.34
2017-06-01T04:04:26.006Z,7.42
2017-06-01T04:06:54.870Z,5.38
2017-06-01T04:09:23.758Z,4.66
2017-06-01T04:11:52.883Z,4.60
2017-06-01T04:14:21.922Z,4.50
2017-06-01T04:16:50.774Z,4.48
2017-06-01T04:19:25.659Z,4.50
2017-06-01T04:21:55.400Z,4.16
2017-06-01T04:24:23.530Z,4.34
2017-06-01T04:26:52.385Z,4.06
2017-06-01T04:29:21.386Z,3.54
2017-06-01T04:31:49.524Z,4.58
2017-06-01T04:34:18.424Z,3.68
2017-06-01T04:36:47.348Z,4.04
2017-06-01T04:39:16.220Z,3.64
2017-06-01T04:41:45.090Z,4.20
2017-06-01T04:44:14.010Z,3.68
2017-06-01T04:46:47.197Z,3.50
2017-06-01T04:49:17.996Z,3.90
2017-06-01T04:51:47.003Z,2.90
2017-06-01T04:54:15.887Z,3.20
2017-06-01T04:56:44.761Z,3.50
2017-06-01T04:59:13.659Z,5.22
2017-06-01T05:01:42.568Z,3.68
2017-06-01T05:04:10.773Z,4.06
2017-06-01T05:06:39.868Z,4.04
2017-06-01T05:09:08.756Z,3.06
2017-06-01T05:11:37.708Z,2.76
2017-06-01T05:14:06.607Z,4.10
2017-06-01T05:16:35.625Z,3.26
2017-06-01T05:19:04.504Z,4.00
2017-06-01T05:21:33.386Z,3.10
2017-06-01T05:24:01.571Z,3.66
2017-06-01T05:26:30.435Z,4.96
2017-06-01T05:29:00.355Z,3.62
2017-06-01T05:31:29.236Z,3.16
2017-06-01T05:33:58.127Z,4.16
2017-06-01T05:36:27.008Z,3.10
2017-06-01T05:38:55.885Z,3.44
2017-06-01T05:41:24.842Z,2.90
2017-06-01T05:43:53.803Z,3.40
2017-06-01T05:46:22.667Z,3.66
2017-06-01T05:48:51.671Z,3.82
2017-06-01T05:51:33.749Z,2.92
2017-06-01T05:54:02.671Z,3.34
2017-06-01T05:56:31.536Z,3.96
2017-06-01T05:59:00.444Z,3.42
2017-06-01T06:01:29.306Z,3.70
2017-06-01T06:03:58.182Z,3.62
2017-06-01T06:09:00.512Z,2.92
2017-06-01T06:11:30.684Z,4.28
2017-06-01T06:13:59.591Z,2.94
2017-06-01T06:16:28.718Z,2.74
2017-06-01T06:18:56.844Z,2.96
2017-06-01T06:21:24.997Z,2.94
2017-06-01T06:23:54.856Z,2.60
2017-06-01T06:26:24.018Z,3.16
2017-06-01T06:28:53.747Z,3.24
2017-06-01T06:31:24.687Z,3.18
2017-06-01T06:33:53.575Z,3.38
2017-06-01T06:36:22.548Z,3.12
2017-06-01T06:38:50.680Z,3.24
2017-06-01T06:41:19.711Z,3.52
2017-06-01T06:43:48.663Z,3.06
2017-06-01T06:46:17.547Z,2.64
2017-06-01T06:48:46.428Z,2.48
2017-06-01T06:51:16.192Z,3.72
2017-06-01T06:53:45.365Z,1.68
2017-06-01T06:56:15.438Z,2.40
2017-06-01T06:58:44.329Z,2.68
2017-06-01T07:01:14.418Z,2.38
2017-06-01T07:03:43.323Z,2.64
2017-06-01T07:06:12.262Z,2.68
2017-06-01T07:08:40.439Z,3.04
2017-06-01T07:11:17.308Z,3.16
2017-06-01T07:16:26.431Z,2.72
2017-06-01T07:18:55.391Z,2.48
2017-06-01T07:21:24.346Z,3.20
2017-06-01T07:23:53.314Z,2.70
2017-06-01T07:26:23.215Z,2.60
2017-06-01T07:28:52.599Z,2.62
2017-06-01T07:31:20.750Z,2.52
2017-06-01T07:33:49.640Z,2.30
2017-06-01T07:36:18.616Z,2.22
2017-06-01T07:38:46.865Z,2.80
2017-06-01T07:41:15.765Z,3.02
2017-06-01T07:43:44.801Z,3.28
2017-06-01T07:46:13.712Z,3.16
2017-06-01T07:48:59.546Z,2.46
2017-06-01T07:51:28.536Z,1.98
2017-06-01T07:53:57.459Z,3.32
2017-06-01T07:56:26.479Z,2.60
2017-06-01T07:58:56.327Z,3.02
2017-06-01T08:01:24.456Z,2.92
2017-06-01T08:03:55.367Z,2.68
2017-06-01T08:06:24.277Z,2.64
2017-06-01T08:08:53.217Z,3.08
2017-06-01T08:11:21.426Z,2.34
2017-06-01T08:13:50.312Z,2.42
2017-06-01T08:16:23.931Z,2.76
2017-06-01T08:18:52.816Z,2.64
2017-06-01T08:21:20.996Z,2.52
2017-06-01T08:23:49.900Z,3.00
2017-06-01T08:26:18.822Z,2.22
2017-06-01T08:28:47.968Z,2.70
2017-06-01T08:33:52.975Z,2.68
2017-06-01T08:36:21.893Z,2.00
2017-06-01T08:38:50.854Z,2.38
2017-06-01T08:41:19.712Z,1.86
2017-06-01T08:43:48.761Z,1.82
2017-06-01T08:46:17.699Z,2.82
2017-06-01T08:48:46.575Z,2.70
2017-06-01T08:51:15.515Z,2.92
2017-06-01T08:53:44.486Z,2.54
2017-06-01T08:56:13.491Z,2.22
2017-06-01T08:58:44.793Z,2.12
2017-06-01T09:01:14.634Z,2.76
2017-06-01T09:03:44.540Z,2.86
2017-06-01T09:06:13.396Z,2.76
2017-06-01T09:08:41.496Z,2.74
2017-06-01T09:11:10.423Z,2.82
2017-06-01T09:13:38.513Z,2.88
2017-06-01T09:16:07.410Z,2.74
2017-06-01T09:18:36.401Z,2.38
2017-06-01T09:21:04.574Z,2.92
2017-06-01T09:23:33.638Z,2.10
2017-06-01T09:26:02.530Z,2.90
2017-06-01T09:28:31.546Z,3.16
2017-06-01T09:30:59.656Z,2.56
2017-06-01T09:33:27.969Z,2.74
2017-06-01T09:35:56.831Z,2.56
2017-06-01T09:38:24.957Z,2.50
2017-06-01T09:40:53.868Z,2.96
2017-06-01T09:43:22.978Z,2.72
2017-06-01T09:45:51.849Z,3.04
2017-06-01T09:48:35.281Z,3.44
2017-06-01T09:51:04.183Z,2.38
2017-06-01T09:53:33.099Z,2.96
2017-06-01T09:56:02.103Z,2.62
2017-06-01T09:58:31.515Z,2.64
2017-06-01T10:01:00.587Z,2.36
2017-06-01T10:03:29.478Z,2.72
2017-06-01T10:05:58.434Z,2.84
2017-06-01T10:08:28.175Z,4.44
2017-06-01T10:10:57.189Z,2.72
2017-06-01T10:13:26.984Z,2.04
2017-06-01T10:15:55.961Z,2.42
2017-06-01T10:18:24.122Z,2.60
2017-06-01T10:20:53.085Z,2.54
2017-06-01T10:23:21.971Z,3.02
2017-06-01T10:25:50.967Z,2.62
2017-06-01T10:28:19.830Z,3.26
2017-06-01T10:30:48.024Z,3.48
2017-06-01T10:33:16.892Z,2.62
2017-06-01T10:35:45.881Z,2.88
2017-06-01T10:38:14.742Z,2.50
2017-06-01T10:40:44.427Z,3.16
2017-06-01T10:43:12.874Z,2.90
2017-06-01T10:45:41.832Z,3.90
2017-06-01T10:48:10.826Z,3.48
2017-06-01T10:50:39.760Z,2.32
2017-06-01T10:53:08.762Z,2.42
2017-06-01T10:55:38.831Z,2.56
2017-06-01T10:58:07.837Z,2.50
2017-06-01T11:00:36.109Z,2.78
2017-06-01T11:03:05.289Z,2.50
2017-06-01T11:05:34.170Z,2.52
2017-06-01T11:08:03.086Z,2.40
2017-06-01T11:10:32.040Z,2.32
2017-06-01T11:13:00.949Z,3.02
2017-06-01T11:15:29.924Z,2.70
2017-06-01T11:17:58.869Z,3.02
2017-06-01T11:20:27.735Z,2.60
2017-06-01T11:22:55.880Z,2.50
2017-06-01T11:25:24.773Z,2.92
2017-06-01T11:27:53.002Z,2.54
2017-06-01T11:30:21.870Z,3.08
2017-06-01T11:32:50.770Z,2.76
2017-06-01T11:35:36.210Z,2.72
2017-06-01T11:38:05.117Z,2.76
2017-06-01T11:40:34.005Z,2.30
2017-06-01T11:43:02.883Z,1.64
2017-06-01T11:45:31.802Z,1.98
2017-06-01T11:48:00.650Z,2.28
2017-06-01T11:50:30.763Z,2.04
2017-06-01T11:52:58.946Z,2.10
2017-06-01T11:55:27.899Z,2.36
2017-06-01T11:57:57.771Z,2.12
2017-06-01T12:00:26.835Z,2.62
2017-06-01T12:02:56.308Z,2.28
2017-06-01T12:05:25.310Z,2.30
2017-06-01T12:07:54.215Z,2.62
2017-06-01T12:10:22.333Z,2.50
2017-06-01T12:12:51.253Z,2.48
2017-06-01T12:15:20.172Z,1.60
2017-06-01T12:17:49.070Z,2.14
2017-06-01T12:20:17.993Z,2.10
2017-06-01T12:22:46.859Z,1.80
2017-06-01T12:25:15.726Z,1.90
2017-06-01T12:27:44.704Z,1.94
2017-06-01T12:30:12.802Z,2.08
2017-06-01T12:32:41.077Z,1.80
2017-06-01T12:35:10.102Z,1.96
2017-06-01T12:37:39.002Z,1.86
2017-06-01T12:40:07.916Z,2.18
2017-06-01T12:42:36.940Z,1.94
2017-06-01T12:45:05.872Z,2.10
2017-06-01T12:47:34.773Z,1.80
2017-06-01T12:50:02.909Z,1.92
2017-06-01T12:52:35.175Z,1.74
2017-06-01T12:55:04.063Z,1.60
2017-06-01T12:57:33.000Z,1.88
2017-06-01T13:00:03.032Z,2.16
2017-06-01T13:02:31.913Z,1.48
2017-06-01T13:05:00.792Z,1.86
2017-06-01T13:07:29.686Z,1.72
2017-06-01T13:09:57.787Z,2.20
2017-06-01T13:12:26.737Z,2.68
2017-06-01T13:14:55.595Z,3.90
2017-06-01T13:17:24.462Z,2.58
2017-06-01T13:19:53.360Z,1.92
2017-06-01T13:22:22.283Z,1.42
2017-06-01T13:24:51.183Z,1.80
2017-06-01T13:27:20.088Z,1.44
2017-06-01T13:29:48.288Z,1.14
2017-06-01T13:32:16.375Z,1.86
2017-06-01T13:34:45.273Z,1.54
2017-06-01T13:37:14.207Z,1.40
2017-06-01T13:39:42.382Z,1.50
2017-06-01T13:42:11.256Z,1.78
2017-06-01T13:44:39.355Z,1.76
2017-06-01T13:47:08.342Z,2.10
2017-06-01T13:49:37.244Z,1.72
2017-06-01T13:52:06.262Z,2.04
2017-06-01T13:54:35.178Z,1.80
2017-06-01T13:57:04.043Z,1.30
2017-06-01T13:59:32.927Z,1.46
2017-06-01T14:02:01.889Z,2.00
2017-06-01T14:04:30.914Z,1.90
2017-06-01T14:07:00.012Z,2.16
2017-06-01T14:09:28.900Z,2.10
2017-06-01T14:11:57.774Z,2.02
2017-06-01T14:14:26.768Z,1.66
2017-06-01T14:16:55.739Z,1.48
2017-06-01T14:19:24.706Z,2.00
2017-06-01T14:21:53.976Z,1.80
2017-06-01T14:24:22.110Z,1.76
2017-06-01T14:26:51.105Z,1.42
2017-06-01T14:29:20.110Z,1.66
2017-06-01T14:31:49.103Z,1.08
2017-06-01T14:34:18.015Z,0.80
2017-06-01T14:36:47.830Z,1.28
2017-06-01T14:39:17.712Z,1.28
2017-06-01T14:41:46.645Z,1.24
2017-06-01T14:44:15.487Z,1.76
2017-06-01T14:46:44.482Z,1.96
2017-06-01T14:49:13.397Z,1.14
2017-06-01T14:51:44.167Z,1.00
2017-06-01T14:54:13.099Z,1.58
2017-06-01T14:56:42.120Z,2.04
2017-06-01T14:59:11.064Z,1.40
2017-06-01T15:01:39.926Z,1.04
2017-06-01T15:04:08.789Z,1.80
2017-06-01T15:06:37.763Z,1.20
2017-06-01T15:09:05.864Z,1.46
2017-06-01T15:11:34.070Z,1.28
2017-06-01T15:14:02.940Z,1.42
2017-06-01T15:16:31.813Z,1.20
2017-06-01T15:19:00.735Z,0.70
2017-06-01T15:21:29.609Z,1.06
2017-06-01T15:23:59.796Z,1.00
2017-06-01T15:26:28.909Z,0.98
2017-06-01T15:28:57.782Z,1.32
2017-06-01T15:31:26.648Z,1.42
2017-06-01T15:33:54.934Z,1.10
2017-06-01T15:36:23.984Z,0.94
2017-06-01T15:38:52.965Z,0.88
2017-06-01T15:41:21.895Z,2.42
2017-06-01T15:43:50.809Z,1.02
2017-06-01T15:46:19.727Z,1.04
2017-06-01T15:48:50.694Z,1.16
2017-06-01T15:51:20.023Z,1.10
2017-06-01T15:53:48.922Z,1.40
2017-06-01T15:56:17.813Z,1.28
2017-06-01T15:58:47.567Z,0.98
2017-06-01T16:01:15.682Z,0.94
2017-06-01T16:03:43.843Z,1.12
2017-06-01T16:06:12.720Z,1.40
2017-06-01T16:08:41.700Z,0.96
2017-06-01T16:11:10.622Z,0.98
2017-06-01T16:13:39.516Z,1.26
2017-06-01T16:16:08.467Z,1.10
2017-06-01T16:18:38.269Z,1.36
2017-06-01T16:21:07.159Z,1.06
2017-06-01T16:23:35.993Z,1.14
2017-06-01T16:26:04.885Z,0.90
2017-06-01T16:28:33.718Z,1.20
2017-06-01T16:31:03.171Z,0.82
2017-06-01T16:33:32.106Z,1.20
2017-06-01T16:36:00.981Z,1.04
2017-06-01T16:38:33.468Z,1.36
2017-06-01T16:41:02.327Z,1.10
2017-06-01T16:43:32.081Z,1.32
2017-06-01T16:46:01.900Z,0.80
2017-06-01T16:48:31.205Z,1.18
2017-06-01T16:51:02.950Z,1.66
2017-06-01T16:53:33.315Z,1.10
2017-06-01T16:56:02.202Z,1.40
2017-06-01T16:58:31.048Z,1.60
2017-06-01T17:01:04.955Z,1.00
2017-06-01T17:03:33.968Z,1.44
2017-06-01T17:06:03.638Z,1.16
2017-06-01T17:08:40.991Z,1.44
2017-06-01T17:11:09.887Z,1.48
2017-06-01T17:13:38.780Z,1.02
2017-06-01T17:16:07.633Z,1.88
2017-06-01T17:18:36.549Z,1.40
2017-06-01T17:21:05.412Z,1.20
2017-06-01T17:23:34.814Z,1.44
2017-06-01T17:26:03.752Z,1.20
2017-06-01T17:28:31.890Z,1.20
2017-06-01T17:31:01.278Z,1.44
2017-06-01T17:33:35.078Z,1.10
2017-06-01T17:36:05.317Z,1.56
2017-06-01T17:38:35.131Z,1.42
2017-06-01T17:41:04.617Z,1.14
2017-06-01T17:43:35.550Z,1.10
2017-06-01T17:46:08.216Z,1.24
2017-06-01T17:48:39.538Z,0.94
2017-06-01T17:51:13.191Z,1.04
2017-06-01T17:53:42.140Z,1.36
2017-06-01T17:56:11.008Z,1.16
2017-06-01T17:58:40.039Z,1.00
2017-06-01T18:01:10.019Z,1.10
2017-06-01T18:03:39.077Z,1.06
2017-06-01T18:06:08.879Z,1.38
2017-06-01T18:08:37.879Z,1.10
2017-06-01T18:11:06.811Z,1.18
2017-06-01T18:13:36.645Z,1.42
2017-06-01T18:16:07.081Z,1.00
2017-06-01T18:18:36.786Z,1.20
2017-06-01T18:21:27.104Z,1.04
2017-06-01T18:23:56.040Z,1.02
2017-06-01T18:26:24.952Z,1.18
2017-06-01T18:28:55.240Z,1.38
2017-06-01T18:31:25.584Z,0.90
2017-06-01T18:33:53.674Z,1.34
2017-06-01T18:36:23.119Z,1.14
2017-06-01T18:38:54.372Z,1.40
2017-06-01T18:41:24.131Z,1.04
2017-06-01T18:43:53.140Z,1.30
2017-06-01T18:46:21.988Z,1.26
2017-06-01T18:48:50.925Z,1.08
2017-06-01T18:51:19.789Z,1.60
2017-06-01T18:53:48.750Z,1.10
2017-06-01T18:56:17.716Z,1.18
2017-06-01T18:58:45.847Z,1.66
2017-06-01T19:01:13.970Z,2.08
2017-06-01T19:03:42.844Z,1.38
2017-06-01T19:06:12.647Z,1.62
2017-06-01T19:08:40.761Z,1.54
2017-06-01T19:11:09.596Z,1.70
2017-06-01T19:13:37.759Z,1.44
2017-06-01T19:16:06.621Z,1.30
2017-06-01T19:18:35.476Z,1.32
2017-06-01T19:21:04.414Z,1.26
2017-06-01T19:23:33.291Z,1.36
2017-06-01T19:26:02.188Z,1.68
2017-06-01T19:28:31.091Z,1.62
2017-06-01T19:30:59.954Z,1.48
2017-06-01T19:33:29.770Z,1.66
2017-06-01T19:35:58.654Z,1.60
2017-06-01T19:38:27.551Z,2.00
2017-06-01T19:40:56.420Z,1.92
2017-06-01T19:43:26.096Z,1.68
2017-06-01T19:45:54.956Z,1.98
2017-06-01T19:48:23.811Z,2.62
2017-06-01T19:50:58.660Z,1.92
2017-06-01T19:53:27.506Z,2.62
2017-06-01T19:55:56.370Z,2.32
2017-06-01T19:58:25.892Z,1.86
2017-06-01T20:00:57.514Z,1.80
2017-06-01T20:03:26.374Z,2.10
2017-06-01T20:05:59.085Z,2.22
2017-06-01T20:08:28.022Z,3.06
2017-06-01T20:10:56.896Z,2.22
2017-06-01T20:13:25.004Z,2.42
2017-06-01T20:16:06.529Z,3.26
2017-06-01T20:18:40.686Z,2.50
2017-06-01T20:21:09.568Z,2.12
2017-06-01T20:23:39.103Z,3.34
2017-06-01T20:26:08.039Z,2.58
2017-06-01T20:28:37.014Z,2.34
2017-06-01T20:31:06.506Z,2.50
2017-06-01T20:33:35.390Z,2.82
2017-06-01T20:36:04.284Z,2.70
2017-06-01T20:38:33.207Z,2.28
2017-06-01T20:41:02.126Z,2.82
2017-06-01T20:43:31.089Z,2.22
2017-06-01T20:46:00.006Z,3.86
2017-06-01T20:48:36.054Z,2.20
2017-06-01T20:51:04.905Z,2.64
2017-06-01T20:53:34.478Z,3.46
2017-06-01T20:56:03.343Z,3.14
2017-06-01T21:01:09.777Z,2.72
2017-06-01T21:03:38.675Z,3.20
2017-06-01T21:06:07.894Z,3.06
2017-06-01T21:08:36.878Z,2.88
2017-06-01T21:11:04.990Z,2.54
2017-06-01T21:13:33.119Z,3.02
2017-06-01T21:16:02.046Z,2.48
2017-06-01T21:18:30.693Z,2.94
2017-06-01T21:20:59.572Z,3.46
2017-06-01T21:23:28.529Z,3.36
2017-06-01T21:25:57.403Z,3.28
2017-06-01T21:28:26.291Z,3.24
2017-06-01T21:30:57.172Z,3.14
2017-06-01T21:33:29.644Z,4.00
2017-06-01T21:36:00.419Z,3.68
2017-06-01T21:38:28.498Z,3.44
2017-06-01T21:40:57.358Z,3.44
2017-06-01T21:43:27.392Z,3.16
2017-06-01T21:45:56.744Z,3.20
2017-06-01T21:48:26.091Z,3.24
2017-06-01T21:50:55.790Z,3.48
2017-06-01T21:53:27.900Z,3.36
2017-06-01T21:55:59.493Z,3.50
2017-06-01T21:58:28.593Z,4.28
2017-06-01T22:00:58.555Z,3.86
2017-06-01T22:03:30.480Z,4.24
2017-06-01T22:06:00.158Z,3.64
2017-06-01T22:08:30.178Z,4.04
2017-06-01T22:10:59.020Z,3.22
2017-06-01T22:13:27.941Z,4.00
2017-06-01T22:15:58.851Z,3.44
2017-06-01T22:18:27.748Z,3.32
2017-06-01T22:20:57.602Z,3.00
2017-06-01T22:23:30.719Z,3.56
2017-06-01T22:26:00.435Z,3.48
2017-06-01T22:28:29.291Z,3.72
2017-06-01T22:30:58.180Z,3.78
2017-06-01T22:33:27.381Z,3.52
2017-06-01T22:35:58.492Z,4.02
2017-06-01T22:38:27.742Z,3.62
2017-06-01T22:40:57.067Z,3.46
2017-06-01T22:43:27.703Z,3.24
2017-06-01T22:45:56.685Z,3.60
2017-06-01T22:48:25.560Z,4.68
2017-06-01T22:50:54.458Z,3.64
2017-06-01T22:53:23.356Z,5.02
2017-06-01T22:55:52.248Z,3.44
2017-06-01T22:58:22.287Z,3.96
2017-06-01T23:00:50.444Z,3.46
2017-06-01T23:03:21.092Z,3.18
2017-06-01T23:05:49.964Z,4.12
2017-06-01T23:08:18.971Z,3.28
2017-06-01T23:10:48.338Z,4.24
2017-06-01T23:13:17.193Z,3.32
2017-06-01T23:15:46.141Z,4.10
2017-06-01T23:18:15.087Z,4.28
2017-06-01T23:20:44.833Z,3.42
2017-06-01T23:23:13.715Z,3.62
2017-06-01T23:25:43.846Z,3.80
2017-06-01T23:28:13.619Z,3.76
2017-06-01T23:30:42.527Z,3.34
2017-06-01T23:33:12.442Z,3.52
2017-06-01T23:35:41.285Z,4.34
2017-06-01T23:38:11.304Z,4.22
2017-06-01T23:40:41.943Z,3.90
2017-06-01T23:43:10.063Z,3.92
2017-06-01T23:45:38.941Z,4.16
2017-06-01T23:48:07.825Z,3.48
2017-06-01T23:50:36.667Z,3.60
2017-06-01T23:53:05.555Z,3.34
2017-06-01T23:55:34.428Z,4.12
2017-06-01T23:58:04.161Z,3.96
